sensor_id;sensor_type;location;lat;lon;timestamp;P1;durP1;ratioP1;P2;durP2;ratioP2
12721;SDS011;6425;50.316;8.114;2023-12-20T00:00:00;3.1;;;2.9;;
12721;SDS011;6425;50.316;8.114;2023-12-20T00:03:00;3.1;;;2.9;;
12721;SDS011;6425;50.316;8.114;2023-12-20T00:06:01;0.5;;;0.2;;
12721;SDS011;6425;50.316;8.114;2023-12-20T00:09:00;1.7;;;0.5;;
12721;SDS011;6425;50.316;8.114;2023-12-20T00:12:00;1.7;;;0.5;;
12721;SDS011;6425;50.316;8.114;2023-12-20T00:15:00;1.5;;;0.5;;
12721;SDS011;6425;50.316;8.114;2023-12-20T00:18:00;0.9;;;0.5;;
12721;SDS011;6425;50.316;8.114;2023-12-20T00:21:00;0.7;;;0.5;;
12721;SDS011;6425;50.316;8.114;2023-12-20T00:24:00;0.5;;;0.3;;
12721;SDS011;6425;50.316;8.114;2023-12-20T00:27:00;0.5;;;0.3;;
12721;SDS011;6425;50.316;8.114;2023-12-20T00:30:00;0.7;;;0.5;;
12721;SDS011;6425;50.316;8.114;2023-12-20T00:33:00;0.9;;;0.4;;
12721;SDS011;6425;50.316;8.114;2023-12-20T00:36:00;0.9;;;0.4;;
12721;SDS011;6425;50.316;8.114;2023-12-20T00:39:00;0.8;;;0.6;;
12721;SDS011;6425;50.316;8.114;2023-12-20T00:42:00;0.8;;;0.6;;
12721;SDS011;6425;50.316;8.114;2023-12-20T00:45:00;1;;;0.4;;
12721;SDS011;6425;50.316;8.114;2023-12-20T00:48:00;1;;;0.3;;
12721;SDS011;6425;50.316;8.114;2023-12-20T00:51:00;1;;;0.3;;
12721;SDS011;6425;50.316;8.114;2023-12-20T00:54:00;0.6;;;0.6;;
12721;SDS011;6425;50.316;8.114;2023-12-20T00:57:00;0.6;;;0.6;;
12721;SDS011;6425;50.316;8.114;2023-12-20T01:00:01;0.7;;;0.3;;
12721;SDS011;6425;50.316;8.114;2023-12-20T01:03:00;0.6;;;0.4;;
12721;SDS011;6425;50.316;8.114;2023-12-20T01:06:00;0.6;;;0.4;;
12721;SDS011;6425;50.316;8.114;2023-12-20T01:09:00;0.6;;;0.4;;
12721;SDS011;6425;50.316;8.114;2023-12-20T01:12:00;0.6;;;0.4;;
12721;SDS011;6425;50.316;8.114;2023-12-20T01:15:00;0.5;;;0.3;;
12721;SDS011;6425;50.316;8.114;2023-12-20T01:18:00;0.5;;;0.3;;
12721;SDS011;6425;50.316;8.114;2023-12-20T01:21:01;0.5;;;0.3;;
12721;SDS011;6425;50.316;8.114;2023-12-20T01:24:00;0.7;;;0.4;;
12721;SDS011;6425;50.316;8.114;2023-12-20T01:27:00;0.7;;;0.4;;
12721;SDS011;6425;50.316;8.114;2023-12-20T01:30:00;1;;;0.9;;
12721;SDS011;6425;50.316;8.114;2023-12-20T01:33:00;0.6;;;0.3;;
12721;SDS011;6425;50.316;8.114;2023-12-20T01:36:00;0.6;;;0.3;;
12721;SDS011;6425;50.316;8.114;2023-12-20T01:39:00;0.9;;;0.4;;
12721;SDS011;6425;50.316;8.114;2023-12-20T01:42:00;0.9;;;0.4;;
12721;SDS011;6425;50.316;8.114;2023-12-20T01:45:00;0.6;;;0.4;;
12721;SDS011;6425;50.316;8.114;2023-12-20T01:48:00;0.8;;;0.5;;
12721;SDS011;6425;50.316;8.114;2023-12-20T01:51:00;0.8;;;0.5;;
12721;SDS011;6425;50.316;8.114;2023-12-20T01:54:00;0.6;;;0.4;;
12721;SDS011;6425;50.316;8.114;2023-12-20T01:57:00;0.6;;;0.4;;
12721;SDS011;6425;50.316;8.114;2023-12-20T02:00:00;0.6;;;0.4;;
12721;SDS011;6425;50.316;8.114;2023-12-20T02:03:00;0.7;;;0.5;;
12721;SDS011;6425;50.316;8.114;2023-12-20T02:06:00;0.7;;;0.5;;
12721;SDS011;6425;50.316;8.114;2023-12-20T02:09:00;1.1;;;0.6;;
12721;SDS011;6425;50.316;8.114;2023-12-20T02:12:01;1.1;;;0.6;;
12721;SDS011;6425;50.316;8.114;2023-12-20T02:15:00;0.7;;;0.4;;
12721;SDS011;6425;50.316;8.114;2023-12-20T02:18:00;0.9;;;0.5;;
12721;SDS011;6425;50.316;8.114;2023-12-20T02:21:00;0.9;;;0.5;;
12721;SDS011;6425;50.316;8.114;2023-12-20T02:24:00;0.7;;;0.5;;
12721;SDS011;6425;50.316;8.114;2023-12-20T02:27:00;0.7;;;0.5;;
12721;SDS011;6425;50.316;8.114;2023-12-20T02:30:00;2.2;;;0.6;;
12721;SDS011;6425;50.316;8.114;2023-12-20T02:33:00;0.9;;;0.5;;
12721;SDS011;6425;50.316;8.114;2023-12-20T02:36:02;0.9;;;0.5;;
12721;SDS011;6425;50.316;8.114;2023-12-20T02:39:00;1;;;0.7;;
12721;SDS011;6425;50.316;8.114;2023-12-20T02:42:00;1;;;0.7;;
12721;SDS011;6425;50.316;8.114;2023-12-20T02:45:00;2.1;;;0.7;;
12721;SDS011;6425;50.316;8.114;2023-12-20T02:48:00;1.3;;;0.7;;
12721;SDS011;6425;50.316;8.114;2023-12-20T02:51:00;1.3;;;0.7;;
12721;SDS011;6425;50.316;8.114;2023-12-20T02:54:00;1.7;;;0.7;;
12721;SDS011;6425;50.316;8.114;2023-12-20T02:57:00;1.7;;;0.7;;
12721;SDS011;6425;50.316;8.114;2023-12-20T03:00:00;1.5;;;0.8;;
12721;SDS011;6425;50.316;8.114;2023-12-20T03:03:00;1.1;;;0.8;;
12721;SDS011;6425;50.316;8.114;2023-12-20T03:06:00;1.1;;;0.8;;
12721;SDS011;6425;50.316;8.114;2023-12-20T03:09:00;1;;;0.7;;
12721;SDS011;6425;50.316;8.114;2023-12-20T03:12:00;0.9;;;0.5;;
12721;SDS011;6425;50.316;8.114;2023-12-20T03:15:00;0.9;;;0.5;;
12721;SDS011;6425;50.316;8.114;2023-12-20T03:18:00;0.9;;;0.6;;
12721;SDS011;6425;50.316;8.114;2023-12-20T03:21:00;0.9;;;0.6;;
12721;SDS011;6425;50.316;8.114;2023-12-20T03:24:00;1.8;;;0.7;;
12721;SDS011;6425;50.316;8.114;2023-12-20T03:27:00;0.9;;;0.7;;
12721;SDS011;6425;50.316;8.114;2023-12-20T03:30:00;0.9;;;0.7;;
12721;SDS011;6425;50.316;8.114;2023-12-20T03:33:00;1.4;;;0.8;;
12721;SDS011;6425;50.316;8.114;2023-12-20T03:36:02;1.4;;;0.8;;
12721;SDS011;6425;50.316;8.114;2023-12-20T03:39:00;1;;;0.8;;
12721;SDS011;6425;50.316;8.114;2023-12-20T03:42:00;3.5;;;1.2;;
12721;SDS011;6425;50.316;8.114;2023-12-20T03:45:00;3.5;;;1.2;;
12721;SDS011;6425;50.316;8.114;2023-12-20T03:48:00;3.4;;;1.7;;
12721;SDS011;6425;50.316;8.114;2023-12-20T03:51:00;3.4;;;1.7;;
12721;SDS011;6425;50.316;8.114;2023-12-20T03:54:00;3.2;;;2.1;;
12721;SDS011;6425;50.316;8.114;2023-12-20T03:57:00;3.1;;;1.9;;
12721;SDS011;6425;50.316;8.114;2023-12-20T04:00:00;3.1;;;1.9;;
12721;SDS011;6425;50.316;8.114;2023-12-20T04:03:00;2.9;;;2;;
12721;SDS011;6425;50.316;8.114;2023-12-20T04:06:00;2.9;;;2;;
12721;SDS011;6425;50.316;8.114;2023-12-20T04:09:00;4.7;;;3.2;;
12721;SDS011;6425;50.316;8.114;2023-12-20T04:12:00;6.9;;;6.3;;
12721;SDS011;6425;50.316;8.114;2023-12-20T04:15:00;6.9;;;6.3;;
12721;SDS011;6425;50.316;8.114;2023-12-20T04:18:00;6.4;;;3;;
12721;SDS011;6425;50.316;8.114;2023-12-20T04:21:00;6.4;;;3;;
12721;SDS011;6425;50.316;8.114;2023-12-20T04:24:00;7.6;;;1.9;;
12721;SDS011;6425;50.316;8.114;2023-12-20T04:27:00;6.8;;;2.4;;
12721;SDS011;6425;50.316;8.114;2023-12-20T04:30:00;6.8;;;2.4;;
12721;SDS011;6425;50.316;8.114;2023-12-20T04:33:00;4.5;;;2.2;;
12721;SDS011;6425;50.316;8.114;2023-12-20T04:36:01;4.5;;;2.2;;
12721;SDS011;6425;50.316;8.114;2023-12-20T04:39:00;6.7;;;2.2;;
12721;SDS011;6425;50.316;8.114;2023-12-20T04:42:00;5.6;;;1.6;;
12721;SDS011;6425;50.316;8.114;2023-12-20T04:45:00;5.6;;;1.6;;
12721;SDS011;6425;50.316;8.114;2023-12-20T04:48:00;6.4;;;2.2;;
12721;SDS011;6425;50.316;8.114;2023-12-20T04:51:00;6.4;;;2.2;;
12721;SDS011;6425;50.316;8.114;2023-12-20T04:54:00;7.9;;;1.9;;
12721;SDS011;6425;50.316;8.114;2023-12-20T04:57:00;5.4;;;1.7;;
12721;SDS011;6425;50.316;8.114;2023-12-20T05:00:00;5.4;;;1.7;;
12721;SDS011;6425;50.316;8.114;2023-12-20T05:03:00;6.3;;;2;;
12721;SDS011;6425;50.316;8.114;2023-12-20T05:06:00;6.3;;;2;;
12721;SDS011;6425;50.316;8.114;2023-12-20T05:09:00;4.3;;;1.7;;
12721;SDS011;6425;50.316;8.114;2023-12-20T05:12:01;7.7;;;2.4;;
12721;SDS011;6425;50.316;8.114;2023-12-20T05:15:00;7.7;;;2.4;;
12721;SDS011;6425;50.316;8.114;2023-12-20T05:18:00;4.5;;;1.5;;
12721;SDS011;6425;50.316;8.114;2023-12-20T05:21:00;4.5;;;1.5;;
12721;SDS011;6425;50.316;8.114;2023-12-20T05:24:00;7.8;;;2.2;;
12721;SDS011;6425;50.316;8.114;2023-12-20T05:27:00;5.3;;;1.6;;
12721;SDS011;6425;50.316;8.114;2023-12-20T05:30:00;5.3;;;1.6;;
12721;SDS011;6425;50.316;8.114;2023-12-20T05:33:00;6.1;;;2.1;;
12721;SDS011;6425;50.316;8.114;2023-12-20T05:36:00;6.1;;;2.1;;
12721;SDS011;6425;50.316;8.114;2023-12-20T05:39:00;5;;;2.1;;
12721;SDS011;6425;50.316;8.114;2023-12-20T05:42:05;6.4;;;5.3;;
12721;SDS011;6425;50.316;8.114;2023-12-20T05:45:00;6.4;;;5.3;;
12721;SDS011;6425;50.316;8.114;2023-12-20T05:48:00;7.3;;;1.7;;
12721;SDS011;6425;50.316;8.114;2023-12-20T05:51:00;7.1;;;2;;
12721;SDS011;6425;50.316;8.114;2023-12-20T05:54:00;6.9;;;2.4;;
12721;SDS011;6425;50.316;8.114;2023-12-20T05:57:00;5;;;1.7;;
12721;SDS011;6425;50.316;8.114;2023-12-20T06:00:00;5;;;1.7;;
12721;SDS011;6425;50.316;8.114;2023-12-20T06:03:00;3.9;;;1.6;;
12721;SDS011;6425;50.316;8.114;2023-12-20T06:06:03;4;;;1.6;;
12721;SDS011;6425;50.316;8.114;2023-12-20T06:09:00;4;;;1.6;;
12721;SDS011;6425;50.316;8.114;2023-12-20T06:12:00;4.2;;;1.3;;
12721;SDS011;6425;50.316;8.114;2023-12-20T06:15:00;4.2;;;1.3;;
12721;SDS011;6425;50.316;8.114;2023-12-20T06:18:00;5.2;;;1.3;;
12721;SDS011;6425;50.316;8.114;2023-12-20T06:21:00;9.9;;;2;;
12721;SDS011;6425;50.316;8.114;2023-12-20T06:24:00;9.9;;;2;;
12721;SDS011;6425;50.316;8.114;2023-12-20T06:27:00;3.2;;;1.2;;
12721;SDS011;6425;50.316;8.114;2023-12-20T06:30:00;3.2;;;1.2;;
12721;SDS011;6425;50.316;8.114;2023-12-20T06:33:00;5.6;;;1.2;;
12721;SDS011;6425;50.316;8.114;2023-12-20T06:36:00;5.9;;;2;;
12721;SDS011;6425;50.316;8.114;2023-12-20T06:39:00;5.9;;;2;;
12721;SDS011;6425;50.316;8.114;2023-12-20T06:42:00;6.4;;;2.3;;
12721;SDS011;6425;50.316;8.114;2023-12-20T06:45:00;6.4;;;2.3;;
12721;SDS011;6425;50.316;8.114;2023-12-20T06:48:00;5.8;;;1.3;;
12721;SDS011;6425;50.316;8.114;2023-12-20T06:51:00;5.1;;;1.7;;
12721;SDS011;6425;50.316;8.114;2023-12-20T06:54:00;5.1;;;1.7;;
12721;SDS011;6425;50.316;8.114;2023-12-20T06:57:00;4.7;;;1.2;;
12721;SDS011;6425;50.316;8.114;2023-12-20T07:00:00;4.7;;;1.2;;
12721;SDS011;6425;50.316;8.114;2023-12-20T07:03:00;8.1;;;1.9;;
12721;SDS011;6425;50.316;8.114;2023-12-20T07:06:00;4.6;;;1.3;;
12721;SDS011;6425;50.316;8.114;2023-12-20T07:09:00;4.6;;;1.3;;
12721;SDS011;6425;50.316;8.114;2023-12-20T07:12:00;5.9;;;1.3;;
12721;SDS011;6425;50.316;8.114;2023-12-20T07:15:00;5.9;;;1.3;;
12721;SDS011;6425;50.316;8.114;2023-12-20T07:18:00;5.6;;;1.8;;
12721;SDS011;6425;50.316;8.114;2023-12-20T07:21:00;4.2;;;1.9;;
12721;SDS011;6425;50.316;8.114;2023-12-20T07:24:00;4.2;;;1.9;;
12721;SDS011;6425;50.316;8.114;2023-12-20T07:27:00;4.8;;;2;;
12721;SDS011;6425;50.316;8.114;2023-12-20T07:30:00;4.8;;;2;;
12721;SDS011;6425;50.316;8.114;2023-12-20T07:33:00;5.1;;;1.1;;
12721;SDS011;6425;50.316;8.114;2023-12-20T07:36:00;3.4;;;1.3;;
12721;SDS011;6425;50.316;8.114;2023-12-20T07:39:00;3.4;;;1.3;;
12721;SDS011;6425;50.316;8.114;2023-12-20T07:42:00;4.8;;;1.4;;
12721;SDS011;6425;50.316;8.114;2023-12-20T07:45:00;4.8;;;1.4;;
12721;SDS011;6425;50.316;8.114;2023-12-20T07:48:00;7.2;;;1.4;;
12721;SDS011;6425;50.316;8.114;2023-12-20T07:51:00;3;;;1.4;;
12721;SDS011;6425;50.316;8.114;2023-12-20T07:54:00;3;;;1.4;;
12721;SDS011;6425;50.316;8.114;2023-12-20T07:57:00;4.7;;;1.1;;
12721;SDS011;6425;50.316;8.114;2023-12-20T08:00:00;4.7;;;1.1;;
12721;SDS011;6425;50.316;8.114;2023-12-20T08:03:00;5.2;;;1.5;;
12721;SDS011;6425;50.316;8.114;2023-12-20T08:06:00;6.3;;;1.2;;
12721;SDS011;6425;50.316;8.114;2023-12-20T08:09:00;6.3;;;1.2;;
12721;SDS011;6425;50.316;8.114;2023-12-20T08:12:00;4.5;;;2.5;;
12721;SDS011;6425;50.316;8.114;2023-12-20T08:15:00;4.5;;;2.5;;
12721;SDS011;6425;50.316;8.114;2023-12-20T08:18:00;3.3;;;1.2;;
12721;SDS011;6425;50.316;8.114;2023-12-20T08:21:00;7.3;;;2;;
12721;SDS011;6425;50.316;8.114;2023-12-20T08:24:00;7.3;;;2;;
12721;SDS011;6425;50.316;8.114;2023-12-20T08:27:00;3.4;;;2;;
12721;SDS011;6425;50.316;8.114;2023-12-20T08:30:00;3.4;;;1.9;;
12721;SDS011;6425;50.316;8.114;2023-12-20T08:33:00;3.7;;;1.6;;
12721;SDS011;6425;50.316;8.114;2023-12-20T08:36:00;2.8;;;2.2;;
12721;SDS011;6425;50.316;8.114;2023-12-20T08:39:00;2.8;;;2.2;;
12721;SDS011;6425;50.316;8.114;2023-12-20T08:42:00;4.5;;;2;;
12721;SDS011;6425;50.316;8.114;2023-12-20T08:45:00;4.5;;;2.7;;
12721;SDS011;6425;50.316;8.114;2023-12-20T08:48:00;4.5;;;2.7;;
12721;SDS011;6425;50.316;8.114;2023-12-20T08:51:00;5.4;;;2.1;;
12721;SDS011;6425;50.316;8.114;2023-12-20T08:54:00;5.4;;;2.1;;
12721;SDS011;6425;50.316;8.114;2023-12-20T08:57:00;7.3;;;1.5;;
12721;SDS011;6425;50.316;8.114;2023-12-20T09:00:00;4.2;;;1.8;;
12721;SDS011;6425;50.316;8.114;2023-12-20T09:03:01;4.2;;;1.8;;
12721;SDS011;6425;50.316;8.114;2023-12-20T09:06:00;5.9;;;4.9;;
12721;SDS011;6425;50.316;8.114;2023-12-20T09:09:00;5.9;;;4.9;;
12721;SDS011;6425;50.316;8.114;2023-12-20T09:12:00;3.7;;;1.8;;
12721;SDS011;6425;50.316;8.114;2023-12-20T09:15:00;2.5;;;1.5;;
12721;SDS011;6425;50.316;8.114;2023-12-20T09:18:00;2.5;;;1.5;;
12721;SDS011;6425;50.316;8.114;2023-12-20T09:21:00;4.6;;;1.9;;
12721;SDS011;6425;50.316;8.114;2023-12-20T09:24:00;4.6;;;1.9;;
12721;SDS011;6425;50.316;8.114;2023-12-20T09:27:00;5.8;;;2.8;;
12721;SDS011;6425;50.316;8.114;2023-12-20T09:30:00;5;;;2;;
12721;SDS011;6425;50.316;8.114;2023-12-20T09:33:00;5;;;2;;
12721;SDS011;6425;50.316;8.114;2023-12-20T09:36:02;6.5;;;2.1;;
12721;SDS011;6425;50.316;8.114;2023-12-20T09:39:00;6.5;;;2.1;;
12721;SDS011;6425;50.316;8.114;2023-12-20T09:42:00;4.5;;;2.7;;
12721;SDS011;6425;50.316;8.114;2023-12-20T09:45:00;6.8;;;2.8;;
12721;SDS011;6425;50.316;8.114;2023-12-20T09:48:00;6.8;;;2.8;;
12721;SDS011;6425;50.316;8.114;2023-12-20T09:51:00;6.1;;;3.2;;
12721;SDS011;6425;50.316;8.114;2023-12-20T09:54:00;6.1;;;3.2;;
12721;SDS011;6425;50.316;8.114;2023-12-20T09:57:00;8.4;;;2.9;;
12721;SDS011;6425;50.316;8.114;2023-12-20T10:00:01;7.9;;;2.2;;
12721;SDS011;6425;50.316;8.114;2023-12-20T10:03:00;7.9;;;2.2;;
12721;SDS011;6425;50.316;8.114;2023-12-20T10:06:00;19.6;;;7.4;;
12721;SDS011;6425;50.316;8.114;2023-12-20T10:09:00;19.6;;;7.4;;
12721;SDS011;6425;50.316;8.114;2023-12-20T10:12:00;6.6;;;2.7;;
12721;SDS011;6425;50.316;8.114;2023-12-20T10:15:00;6.7;;;2.2;;
12721;SDS011;6425;50.316;8.114;2023-12-20T10:18:00;6.7;;;2.2;;
12721;SDS011;6425;50.316;8.114;2023-12-20T10:21:00;8.4;;;4.6;;
12721;SDS011;6425;50.316;8.114;2023-12-20T10:24:00;8.4;;;4.6;;
12721;SDS011;6425;50.316;8.114;2023-12-20T10:27:01;4.9;;;3.4;;
12721;SDS011;6425;50.316;8.114;2023-12-20T10:30:00;9;;;5.9;;
12721;SDS011;6425;50.316;8.114;2023-12-20T10:33:00;9;;;5.9;;
12721;SDS011;6425;50.316;8.114;2023-12-20T10:36:00;9.4;;;8.5;;
12721;SDS011;6425;50.316;8.114;2023-12-20T10:39:00;9.4;;;8.5;;
12721;SDS011;6425;50.316;8.114;2023-12-20T10:42:00;6.7;;;3.7;;
12721;SDS011;6425;50.316;8.114;2023-12-20T10:45:00;7.2;;;5.9;;
12721;SDS011;6425;50.316;8.114;2023-12-20T10:48:01;7.2;;;5.9;;
12721;SDS011;6425;50.316;8.114;2023-12-20T10:51:00;5.8;;;4.4;;
12721;SDS011;6425;50.316;8.114;2023-12-20T10:54:00;5.8;;;4.4;;
12721;SDS011;6425;50.316;8.114;2023-12-20T10:57:00;7.1;;;4.5;;
12721;SDS011;6425;50.316;8.114;2023-12-20T11:00:00;8.9;;;4.5;;
12721;SDS011;6425;50.316;8.114;2023-12-20T11:03:00;8.9;;;4.5;;
12721;SDS011;6425;50.316;8.114;2023-12-20T11:06:01;7.9;;;7.1;;
12721;SDS011;6425;50.316;8.114;2023-12-20T11:09:01;7.9;;;7.1;;
12721;SDS011;6425;50.316;8.114;2023-12-20T11:12:02;6.1;;;5.5;;
12721;SDS011;6425;50.316;8.114;2023-12-20T11:15:00;9;;;4.7;;
12721;SDS011;6425;50.316;8.114;2023-12-20T11:18:00;9;;;4.7;;
12721;SDS011;6425;50.316;8.114;2023-12-20T11:21:00;5.4;;;4.2;;
12721;SDS011;6425;50.316;8.114;2023-12-20T11:24:00;5.1;;;4.3;;
12721;SDS011;6425;50.316;8.114;2023-12-20T11:27:01;5;;;4.4;;
12721;SDS011;6425;50.316;8.114;2023-12-20T11:30:00;8.3;;;7.5;;
12721;SDS011;6425;50.316;8.114;2023-12-20T11:33:00;8.3;;;7.5;;
12721;SDS011;6425;50.316;8.114;2023-12-20T11:36:00;8.7;;;3.5;;
12721;SDS011;6425;50.316;8.114;2023-12-20T11:39:00;17.3;;;15.7;;
12721;SDS011;6425;50.316;8.114;2023-12-20T11:42:04;17.3;;;15.7;;
12721;SDS011;6425;50.316;8.114;2023-12-20T11:45:01;7;;;6.3;;
12721;SDS011;6425;50.316;8.114;2023-12-20T11:48:00;7;;;6.3;;
12721;SDS011;6425;50.316;8.114;2023-12-20T11:51:01;8.5;;;7.7;;
12721;SDS011;6425;50.316;8.114;2023-12-20T11:54:00;7.4;;;4.3;;
12721;SDS011;6425;50.316;8.114;2023-12-20T11:57:00;7.4;;;4.3;;
12721;SDS011;6425;50.316;8.114;2023-12-20T12:00:00;7;;;6.3;;
12721;SDS011;6425;50.316;8.114;2023-12-20T12:03:00;7;;;6.3;;
12721;SDS011;6425;50.316;8.114;2023-12-20T12:06:00;7.5;;;6;;
12721;SDS011;6425;50.316;8.114;2023-12-20T12:09:00;5.6;;;4.3;;
12721;SDS011;6425;50.316;8.114;2023-12-20T12:12:00;5.6;;;4.3;;
12721;SDS011;6425;50.316;8.114;2023-12-20T12:15:00;4.6;;;4.3;;
12721;SDS011;6425;50.316;8.114;2023-12-20T12:18:00;4.6;;;4.3;;
12721;SDS011;6425;50.316;8.114;2023-12-20T12:21:00;7.3;;;6.2;;
12721;SDS011;6425;50.316;8.114;2023-12-20T12:24:07;6.8;;;6.2;;
12721;SDS011;6425;50.316;8.114;2023-12-20T12:27:00;6.8;;;6.2;;
12721;SDS011;6425;50.316;8.114;2023-12-20T12:30:00;8.7;;;3;;
12721;SDS011;6425;50.316;8.114;2023-12-20T12:33:00;8.7;;;3;;
12721;SDS011;6425;50.316;8.114;2023-12-20T12:36:00;4.8;;;4.4;;
12721;SDS011;6425;50.316;8.114;2023-12-20T12:39:01;7.4;;;6.7;;
12721;SDS011;6425;50.316;8.114;2023-12-20T12:42:00;7.4;;;6.7;;
12721;SDS011;6425;50.316;8.114;2023-12-20T12:45:00;6.9;;;2.3;;
12721;SDS011;6425;50.316;8.114;2023-12-20T12:48:00;6.9;;;2.3;;
12721;SDS011;6425;50.316;8.114;2023-12-20T12:51:00;6.5;;;3.7;;
12721;SDS011;6425;50.316;8.114;2023-12-20T12:54:00;7.6;;;4.3;;
12721;SDS011;6425;50.316;8.114;2023-12-20T12:57:00;7.6;;;4.3;;
12721;SDS011;6425;50.316;8.114;2023-12-20T13:00:00;4.5;;;3.6;;
12721;SDS011;6425;50.316;8.114;2023-12-20T13:03:00;4.5;;;3.6;;
12721;SDS011;6425;50.316;8.114;2023-12-20T13:06:00;6.7;;;3.9;;
12721;SDS011;6425;50.316;8.114;2023-12-20T13:09:00;6.4;;;4.4;;
12721;SDS011;6425;50.316;8.114;2023-12-20T13:12:00;6.4;;;4.4;;
12721;SDS011;6425;50.316;8.114;2023-12-20T13:15:00;8.6;;;6.4;;
12721;SDS011;6425;50.316;8.114;2023-12-20T13:18:00;8.6;;;6.4;;
12721;SDS011;6425;50.316;8.114;2023-12-20T13:21:00;13;;;6.2;;
12721;SDS011;6425;50.316;8.114;2023-12-20T13:24:00;5.6;;;2.8;;
12721;SDS011;6425;50.316;8.114;2023-12-20T13:27:00;5.6;;;2.8;;
12721;SDS011;6425;50.316;8.114;2023-12-20T13:30:00;8.8;;;6.7;;
12721;SDS011;6425;50.316;8.114;2023-12-20T13:33:00;8.8;;;6.7;;
12721;SDS011;6425;50.316;8.114;2023-12-20T13:36:00;6.7;;;4.3;;
12721;SDS011;6425;50.316;8.114;2023-12-20T13:39:00;6.4;;;5.8;;
12721;SDS011;6425;50.316;8.114;2023-12-20T13:42:00;6.4;;;5.8;;
12721;SDS011;6425;50.316;8.114;2023-12-20T13:45:00;9.4;;;7.1;;
12721;SDS011;6425;50.316;8.114;2023-12-20T13:48:00;9.4;;;7.1;;
12721;SDS011;6425;50.316;8.114;2023-12-20T13:51:00;7.2;;;5.9;;
12721;SDS011;6425;50.316;8.114;2023-12-20T13:54:00;11.9;;;10.8;;
12721;SDS011;6425;50.316;8.114;2023-12-20T13:57:00;11.9;;;10.8;;
12721;SDS011;6425;50.316;8.114;2023-12-20T14:00:00;9.5;;;7.9;;
12721;SDS011;6425;50.316;8.114;2023-12-20T14:03:01;9.5;;;7.9;;
12721;SDS011;6425;50.316;8.114;2023-12-20T14:06:00;4.7;;;3.3;;
12721;SDS011;6425;50.316;8.114;2023-12-20T14:09:00;17.6;;;15.8;;
12721;SDS011;6425;50.316;8.114;2023-12-20T14:12:00;17.6;;;15.8;;
12721;SDS011;6425;50.316;8.114;2023-12-20T14:15:00;4.7;;;3.3;;
12721;SDS011;6425;50.316;8.114;2023-12-20T14:18:00;5.9;;;5.3;;
12721;SDS011;6425;50.316;8.114;2023-12-20T14:21:00;5.9;;;5.3;;
12721;SDS011;6425;50.316;8.114;2023-12-20T14:24:00;6;;;5.4;;
12721;SDS011;6425;50.316;8.114;2023-12-20T14:27:00;6;;;5.4;;
12721;SDS011;6425;50.316;8.114;2023-12-20T14:30:00;9.2;;;5.6;;
12721;SDS011;6425;50.316;8.114;2023-12-20T14:33:00;11.2;;;4;;
12721;SDS011;6425;50.316;8.114;2023-12-20T14:36:00;11.2;;;4;;
12721;SDS011;6425;50.316;8.114;2023-12-20T14:39:00;7.2;;;5.7;;
12721;SDS011;6425;50.316;8.114;2023-12-20T14:42:00;7.2;;;5.7;;
12721;SDS011;6425;50.316;8.114;2023-12-20T14:45:00;6.5;;;6;;
12721;SDS011;6425;50.316;8.114;2023-12-20T14:48:00;6.7;;;3.6;;
12721;SDS011;6425;50.316;8.114;2023-12-20T14:51:00;6.7;;;3.6;;
12721;SDS011;6425;50.316;8.114;2023-12-20T14:54:00;5.2;;;3.4;;
12721;SDS011;6425;50.316;8.114;2023-12-20T14:57:00;5.2;;;3.4;;
12721;SDS011;6425;50.316;8.114;2023-12-20T15:00:00;5.5;;;1.9;;
12721;SDS011;6425;50.316;8.114;2023-12-20T15:03:01;6.2;;;2.9;;
12721;SDS011;6425;50.316;8.114;2023-12-20T15:06:00;6.2;;;2.9;;
12721;SDS011;6425;50.316;8.114;2023-12-20T15:09:00;4.2;;;2.7;;
12721;SDS011;6425;50.316;8.114;2023-12-20T15:12:00;4.2;;;2.7;;
12721;SDS011;6425;50.316;8.114;2023-12-20T15:15:00;5.7;;;3.2;;
12721;SDS011;6425;50.316;8.114;2023-12-20T15:18:00;7.2;;;6;;
12721;SDS011;6425;50.316;8.114;2023-12-20T15:21:00;7.2;;;6;;
12721;SDS011;6425;50.316;8.114;2023-12-20T15:24:00;5.2;;;2.6;;
12721;SDS011;6425;50.316;8.114;2023-12-20T15:27:00;5.2;;;2.6;;
12721;SDS011;6425;50.316;8.114;2023-12-20T15:30:00;4.2;;;2.9;;
12721;SDS011;6425;50.316;8.114;2023-12-20T15:33:00;3.3;;;2.3;;
12721;SDS011;6425;50.316;8.114;2023-12-20T15:36:00;3.3;;;2.3;;
12721;SDS011;6425;50.316;8.114;2023-12-20T15:39:00;3.8;;;2.5;;
12721;SDS011;6425;50.316;8.114;2023-12-20T15:51:20;3.8;;;2.5;;
12721;SDS011;6425;50.316;8.114;2023-12-20T15:51:20;3.8;;;2.5;;
12721;SDS011;6425;50.316;8.114;2023-12-20T15:51:21;3.8;;;2.5;;
12721;SDS011;6425;50.316;8.114;2023-12-20T15:51:21;3.8;;;2.5;;
12721;SDS011;6425;50.316;8.114;2023-12-20T15:54:00;6.1;;;3.1;;
12721;SDS011;6425;50.316;8.114;2023-12-20T15:57:00;6.1;;;3.1;;
12721;SDS011;6425;50.316;8.114;2023-12-20T16:00:00;4.6;;;4.2;;
12721;SDS011;6425;50.316;8.114;2023-12-20T16:03:00;4.8;;;4.2;;
12721;SDS011;6425;50.316;8.114;2023-12-20T16:06:00;4.8;;;4.2;;
12721;SDS011;6425;50.316;8.114;2023-12-20T16:09:00;5.5;;;5;;
12721;SDS011;6425;50.316;8.114;2023-12-20T16:12:00;5.5;;;5;;
12721;SDS011;6425;50.316;8.114;2023-12-20T16:15:00;3.2;;;2.2;;
12721;SDS011;6425;50.316;8.114;2023-12-20T16:18:00;3.7;;;3.1;;
12721;SDS011;6425;50.316;8.114;2023-12-20T16:21:00;3.7;;;3.1;;
12721;SDS011;6425;50.316;8.114;2023-12-20T16:24:00;5.9;;;4.2;;
12721;SDS011;6425;50.316;8.114;2023-12-20T16:27:00;5.9;;;4.2;;
12721;SDS011;6425;50.316;8.114;2023-12-20T16:30:00;5.4;;;3.5;;
12721;SDS011;6425;50.316;8.114;2023-12-20T16:33:00;4.4;;;2.9;;
12721;SDS011;6425;50.316;8.114;2023-12-20T16:36:00;4.4;;;2.9;;
12721;SDS011;6425;50.316;8.114;2023-12-20T16:39:01;3.9;;;3;;
12721;SDS011;6425;50.316;8.114;2023-12-20T16:42:00;3.9;;;3;;
12721;SDS011;6425;50.316;8.114;2023-12-20T16:45:00;7.8;;;3.1;;
12721;SDS011;6425;50.316;8.114;2023-12-20T16:48:00;3.8;;;3.5;;
12721;SDS011;6425;50.316;8.114;2023-12-20T16:51:00;3.8;;;3.5;;
12721;SDS011;6425;50.316;8.114;2023-12-20T16:54:00;12.4;;;7.1;;
12721;SDS011;6425;50.316;8.114;2023-12-20T16:57:00;12.4;;;7.1;;
12721;SDS011;6425;50.316;8.114;2023-12-20T17:00:00;4.9;;;3.9;;
12721;SDS011;6425;50.316;8.114;2023-12-20T17:03:00;3.8;;;1.6;;
12721;SDS011;6425;50.316;8.114;2023-12-20T17:06:00;3.8;;;1.6;;
12721;SDS011;6425;50.316;8.114;2023-12-20T17:09:00;4.5;;;3.1;;
12721;SDS011;6425;50.316;8.114;2023-12-20T17:12:00;4.3;;;2.9;;
12721;SDS011;6425;50.316;8.114;2023-12-20T17:15:00;4;;;2.3;;
12721;SDS011;6425;50.316;8.114;2023-12-20T17:18:00;6;;;3.8;;
12721;SDS011;6425;50.316;8.114;2023-12-20T17:21:00;6;;;3.8;;
12721;SDS011;6425;50.316;8.114;2023-12-20T17:24:00;8.3;;;7.7;;
12721;SDS011;6425;50.316;8.114;2023-12-20T17:27:00;4.4;;;1.3;;
12721;SDS011;6425;50.316;8.114;2023-12-20T17:30:00;4.4;;;1.3;;
12721;SDS011;6425;50.316;8.114;2023-12-20T17:33:00;4.6;;;2.1;;
12721;SDS011;6425;50.316;8.114;2023-12-20T17:36:00;4.6;;;2.1;;
12721;SDS011;6425;50.316;8.114;2023-12-20T17:39:00;6.1;;;2.9;;
12721;SDS011;6425;50.316;8.114;2023-12-20T17:42:00;6;;;3.1;;
12721;SDS011;6425;50.316;8.114;2023-12-20T17:45:00;6;;;3.1;;
12721;SDS011;6425;50.316;8.114;2023-12-20T17:48:00;2.5;;;2.3;;
12721;SDS011;6425;50.316;8.114;2023-12-20T17:51:00;2.5;;;2.3;;
12721;SDS011;6425;50.316;8.114;2023-12-20T17:54:00;2.3;;;1.3;;
12721;SDS011;6425;50.316;8.114;2023-12-20T17:57:00;3.5;;;3.1;;
12721;SDS011;6425;50.316;8.114;2023-12-20T18:00:10;3.5;;;3.1;;
12721;SDS011;6425;50.316;8.114;2023-12-20T18:03:00;4.2;;;1.5;;
12721;SDS011;6425;50.316;8.114;2023-12-20T18:06:00;4.2;;;1.5;;
12721;SDS011;6425;50.316;8.114;2023-12-20T18:09:00;2.8;;;1.7;;
12721;SDS011;6425;50.316;8.114;2023-12-20T18:12:00;3;;;1.5;;
12721;SDS011;6425;50.316;8.114;2023-12-20T18:15:00;3;;;1.5;;
12721;SDS011;6425;50.316;8.114;2023-12-20T18:18:00;3.3;;;3;;
12721;SDS011;6425;50.316;8.114;2023-12-20T18:21:00;3.3;;;3;;
12721;SDS011;6425;50.316;8.114;2023-12-20T18:24:00;3.7;;;2.2;;
12721;SDS011;6425;50.316;8.114;2023-12-20T18:27:00;9.7;;;8.4;;
12721;SDS011;6425;50.316;8.114;2023-12-20T18:30:00;9.7;;;8.4;;
12721;SDS011;6425;50.316;8.114;2023-12-20T18:33:00;5;;;2.3;;
12721;SDS011;6425;50.316;8.114;2023-12-20T18:36:00;5;;;2.3;;
12721;SDS011;6425;50.316;8.114;2023-12-20T18:39:00;3.3;;;1.6;;
12721;SDS011;6425;50.316;8.114;2023-12-20T18:42:00;4.4;;;4;;
12721;SDS011;6425;50.316;8.114;2023-12-20T18:45:00;4.4;;;4;;
12721;SDS011;6425;50.316;8.114;2023-12-20T18:48:00;2;;;1.6;;
12721;SDS011;6425;50.316;8.114;2023-12-20T18:51:00;2;;;1.6;;
12721;SDS011;6425;50.316;8.114;2023-12-20T18:54:00;2.6;;;1.5;;
12721;SDS011;6425;50.316;8.114;2023-12-20T18:57:00;2.2;;;0.7;;
12721;SDS011;6425;50.316;8.114;2023-12-20T19:00:00;2.2;;;0.7;;